createdAt,value
2019-05-03T00:02:24.893Z,13.60
2019-05-03T00:05:17.501Z,13.50
2019-05-03T00:07:52.643Z,13.50
2019-05-03T00:10:25.772Z,13.30
2019-05-03T00:12:58.901Z,13.40
2019-05-03T00:15:33.343Z,13.30
2019-05-03T00:18:06.310Z,13.30
2019-05-03T00:20:39.445Z,13.30
2019-05-03T00:23:12.221Z,13.20
2019-05-03T00:25:45.241Z,13.30
2019-05-03T00:28:18.170Z,13.50
2019-05-03T00:30:51.843Z,13.50
2019-05-03T00:33:25.111Z,13.40
2019-05-03T00:35:59.689Z,13.30
2019-05-03T00:38:32.700Z,13.20
2019-05-03T00:41:06.536Z,13.30
2019-05-03T00:43:39.509Z,13.30
2019-05-03T00:46:12.710Z,13.20
2019-05-03T00:48:45.829Z,13.10
2019-05-03T00:51:18.820Z,13.10
2019-05-03T00:53:53.091Z,13.10
2019-05-03T00:56:26.509Z,13.10
2019-05-03T00:59:02.035Z,13.10
2019-05-03T01:01:34.740Z,13.10
2019-05-03T01:04:07.607Z,13.00
2019-05-03T01:06:42.357Z,13.00
2019-05-03T01:09:16.770Z,13.00
2019-05-03T01:11:49.800Z,12.90
2019-05-03T01:14:22.701Z,12.90
2019-05-03T01:16:55.720Z,12.90
2019-05-03T01:19:28.620Z,12.90
2019-05-03T01:22:01.978Z,12.90
2019-05-03T01:24:35.181Z,12.80
2019-05-03T01:27:07.843Z,12.80
2019-05-03T01:29:42.436Z,12.80
2019-05-03T01:32:15.229Z,12.90
2019-05-03T01:34:48.190Z,12.90
2019-05-03T01:37:22.654Z,12.90
2019-05-03T01:39:55.840Z,12.90
2019-05-03T01:42:29.060Z,12.60
2019-05-03T01:45:02.131Z,12.50
2019-05-03T01:47:52.729Z,12.40
2019-05-03T01:50:31.901Z,12.40
2019-05-03T01:53:09.021Z,12.40
2019-05-03T01:55:54.401Z,12.60
2019-05-03T01:58:27.400Z,12.60
2019-05-03T02:01:07.989Z,12.70
2019-05-03T02:03:42.463Z,12.70
2019-05-03T02:06:15.321Z,12.60
2019-05-03T02:08:48.469Z,12.80
2019-05-03T02:11:22.228Z,12.80
2019-05-03T02:13:55.460Z,12.80
2019-05-03T02:16:28.400Z,12.70
2019-05-03T02:19:02.479Z,12.70
2019-05-03T02:21:35.837Z,12.80
2019-05-03T02:24:08.569Z,12.70
2019-05-03T02:26:42.542Z,12.60
2019-05-03T02:29:15.620Z,12.60
2019-05-03T02:31:48.623Z,12.60
2019-05-03T02:34:23.877Z,12.50
2019-05-03T02:36:56.240Z,12.40
2019-05-03T02:39:29.249Z,12.40
2019-05-03T02:42:07.856Z,12.30
2019-05-03T02:44:38.251Z,12.30
2019-05-03T02:47:26.528Z,12.30
2019-05-03T02:50:05.839Z,12.50
2019-05-03T02:52:38.364Z,12.60
2019-05-03T02:55:11.293Z,12.70
2019-05-03T02:57:46.686Z,12.70
2019-05-03T03:00:18.981Z,12.80
2019-05-03T03:02:51.861Z,12.70
2019-05-03T03:05:25.256Z,12.70
2019-05-03T03:07:58.471Z,12.70
2019-05-03T03:10:31.681Z,12.70
2019-05-03T03:13:05.970Z,12.60
2019-05-03T03:15:39.291Z,12.50
2019-05-03T03:18:12.217Z,12.50
2019-05-03T03:20:45.161Z,12.40
2019-05-03T03:23:18.117Z,12.50
2019-05-03T03:25:51.201Z,12.70
2019-05-03T03:28:25.282Z,12.50
2019-05-03T03:30:58.466Z,12.50
2019-05-03T03:33:31.522Z,12.30
2019-05-03T03:36:31.861Z,12.30
2019-05-03T03:38:40.041Z,12.30
2019-05-03T03:41:16.166Z,12.30
2019-05-03T03:43:48.682Z,12.20
2019-05-03T03:46:21.689Z,12.20
2019-05-03T03:48:55.962Z,12.30
2019-05-03T03:51:29.130Z,12.20
2019-05-03T03:54:02.110Z,12.20
2019-05-03T03:56:40.900Z,12.20
2019-05-03T03:59:09.560Z,12.20
2019-05-03T04:01:42.501Z,12.30
2019-05-03T04:04:16.008Z,12.30
2019-05-03T04:06:49.242Z,12.30
2019-05-03T04:09:22.162Z,12.30
2019-05-03T04:11:56.805Z,12.30
2019-05-03T04:14:31.283Z,12.40
2019-05-03T04:17:22.023Z,12.30
2019-05-03T04:19:56.591Z,12.30
2019-05-03T04:22:29.549Z,12.30
2019-05-03T04:25:02.560Z,12.40
2019-05-03T04:27:36.427Z,12.30
2019-05-03T04:30:09.469Z,12.30
2019-05-03T04:32:42.361Z,12.40
2019-05-03T04:35:16.316Z,12.30
2019-05-03T04:37:49.725Z,12.30
2019-05-03T04:40:22.559Z,12.20
2019-05-03T04:42:55.942Z,12.30
2019-05-03T04:45:29.152Z,12.30
2019-05-03T04:48:02.071Z,12.30
2019-05-03T04:50:36.761Z,12.20
2019-05-03T04:53:09.380Z,12.40
2019-05-03T04:55:42.264Z,12.50
2019-05-03T04:58:16.199Z,12.50
2019-05-03T05:00:49.382Z,12.50
2019-05-03T05:03:22.569Z,12.50
2019-05-03T05:05:59.330Z,12.50
2019-05-03T05:08:29.860Z,12.50
2019-05-03T05:11:05.197Z,12.50
2019-05-03T05:13:37.433Z,12.50
2019-05-03T05:16:10.243Z,12.50
2019-05-03T05:18:45.747Z,12.60
2019-05-03T05:21:25.127Z,12.50
2019-05-03T05:24:02.105Z,12.50
2019-05-03T05:26:36.590Z,12.50
2019-05-03T05:29:11.050Z,12.30
2019-05-03T05:31:44.651Z,12.30
2019-05-03T05:34:17.940Z,12.30
2019-05-03T05:36:50.980Z,12.10
2019-05-03T05:39:24.460Z,12.00
2019-05-03T05:41:57.580Z,11.90
2019-05-03T05:44:30.460Z,12.00
2019-05-03T05:47:05.094Z,12.00
2019-05-03T05:49:51.841Z,11.90
2019-05-03T05:52:24.734Z,11.80
2019-05-03T05:55:15.502Z,11.60
2019-05-03T05:58:01.850Z,11.60
2019-05-03T06:00:32.581Z,11.70
2019-05-03T06:03:05.449Z,11.80
2019-05-03T06:05:38.565Z,11.90
2019-05-03T06:08:15.848Z,11.90
2019-05-03T06:10:56.189Z,11.90
2019-05-03T06:13:34.454Z,12.00
2019-05-03T06:16:19.401Z,12.20
2019-05-03T06:18:52.133Z,12.30
2019-05-03T06:21:32.751Z,12.40
2019-05-03T06:24:19.149Z,12.20
2019-05-03T06:26:54.709Z,12.20
2019-05-03T06:29:27.661Z,12.10
2019-05-03T06:32:00.370Z,12.20
2019-05-03T06:34:35.337Z,12.20
2019-05-03T06:37:09.600Z,12.20
2019-05-03T06:39:42.589Z,12.30
2019-05-03T06:42:19.139Z,12.30
2019-05-03T06:44:49.883Z,12.40
2019-05-03T06:47:25.162Z,12.50
2019-05-03T06:49:57.480Z,12.70
2019-05-03T06:52:30.381Z,12.70
2019-05-03T06:55:06.441Z,12.70
2019-05-03T06:57:40.021Z,12.70
2019-05-03T07:00:18.632Z,12.70
2019-05-03T07:02:55.889Z,12.50
2019-05-03T07:05:46.743Z,12.60
2019-05-03T07:08:37.405Z,12.70
2019-05-03T07:11:11.069Z,13.00
2019-05-03T07:13:44.955Z,13.10
2019-05-03T07:16:18.221Z,13.20
2019-05-03T07:18:51.149Z,13.20
2019-05-03T07:21:24.772Z,13.10
2019-05-03T07:23:58.249Z,13.10
2019-05-03T07:26:31.169Z,13.20
2019-05-03T07:29:05.203Z,13.20
2019-05-03T07:31:38.089Z,13.20
2019-05-03T07:34:10.949Z,13.30
2019-05-03T07:36:44.695Z,13.40
2019-05-03T07:39:17.980Z,13.40
2019-05-03T07:41:50.930Z,13.50
2019-05-03T07:44:25.480Z,13.40
2019-05-03T07:46:58.460Z,13.60
2019-05-03T07:49:31.360Z,13.60
2019-05-03T07:52:05.803Z,13.60
2019-05-03T07:54:39.020Z,13.70
2019-05-03T07:57:28.780Z,13.80
2019-05-03T08:00:01.755Z,13.60
2019-05-03T08:02:35.955Z,13.80
2019-05-03T08:05:08.995Z,13.90
2019-05-03T08:07:44.487Z,13.90
2019-05-03T08:10:17.312Z,13.90
2019-05-03T08:12:50.269Z,14.00
2019-05-03T08:15:24.566Z,13.80
2019-05-03T08:17:57.729Z,14.00
2019-05-03T08:20:30.760Z,14.00
2019-05-03T08:23:05.294Z,14.00
2019-05-03T08:25:38.151Z,14.10
2019-05-03T08:28:11.091Z,14.30
2019-05-03T08:30:54.333Z,14.40
2019-05-03T08:33:29.070Z,14.60
2019-05-03T08:36:02.069Z,14.50
2019-05-03T08:38:35.010Z,14.50
2019-05-03T08:41:09.339Z,15.00
2019-05-03T08:43:42.280Z,15.10
2019-05-03T08:46:15.289Z,15.40
2019-05-03T08:48:48.199Z,15.90
2019-05-03T08:51:21.200Z,16.20
2019-05-03T08:53:56.024Z,16.10
2019-05-03T08:56:28.689Z,16.50
2019-05-03T08:59:01.598Z,16.30
2019-05-03T09:01:36.463Z,15.80
2019-05-03T09:04:08.900Z,15.70
2019-05-03T09:06:41.980Z,16.20
2019-05-03T09:09:19.399Z,16.70
2019-05-03T09:11:52.439Z,16.70
2019-05-03T09:14:38.483Z,16.80
2019-05-03T09:16:59.963Z,17.00
2019-05-03T09:19:34.548Z,16.60
2019-05-03T09:22:07.419Z,16.30
2019-05-03T09:24:40.399Z,16.10
2019-05-03T09:27:14.885Z,16.00
2019-05-03T09:29:48.200Z,16.00
2019-05-03T09:32:21.199Z,16.30
2019-05-03T09:34:55.043Z,16.10
2019-05-03T09:37:28.229Z,15.90
2019-05-03T09:40:01.150Z,16.00
2019-05-03T09:42:35.218Z,16.10
2019-05-03T09:45:08.128Z,16.10
2019-05-03T09:47:41.170Z,16.00
2019-05-03T09:50:15.628Z,16.00
2019-05-03T09:52:48.972Z,15.90
2019-05-03T09:55:25.247Z,15.90
2019-05-03T09:57:58.102Z,15.90
2019-05-03T10:00:31.089Z,16.00
2019-05-03T10:03:05.771Z,15.90
2019-05-03T10:05:38.779Z,16.00
2019-05-03T10:08:11.819Z,16.20
2019-05-03T10:11:05.291Z,16.60
2019-05-03T10:13:37.141Z,16.60
2019-05-03T10:16:10.109Z,17.00
2019-05-03T10:18:45.673Z,17.00
2019-05-03T10:21:17.919Z,16.80
2019-05-03T10:23:52.066Z,16.60
2019-05-03T10:26:26.341Z,16.40
2019-05-03T10:28:59.300Z,16.20
2019-05-03T10:31:35.469Z,16.00
2019-05-03T10:34:08.164Z,15.80
2019-05-03T10:36:41.069Z,15.70
2019-05-03T10:39:15.473Z,15.30
2019-05-03T10:41:48.809Z,15.10
2019-05-03T10:44:21.670Z,15.10
2019-05-03T10:46:55.907Z,15.00
2019-05-03T10:49:29.121Z,15.00
2019-05-03T10:52:05.663Z,14.80
2019-05-03T10:54:38.408Z,14.50
2019-05-03T10:57:12.970Z,14.30
2019-05-03T10:59:45.989Z,14.20
2019-05-03T11:02:38.842Z,14.00
2019-05-03T11:05:11.729Z,14.00
2019-05-03T11:07:45.130Z,14.00
2019-05-03T11:10:18.391Z,13.90
2019-05-03T11:12:51.319Z,13.80
2019-05-03T11:15:25.921Z,13.80
2019-05-03T11:17:58.929Z,13.70
2019-05-03T11:20:32.142Z,13.50
2019-05-03T11:23:05.885Z,13.50
2019-05-03T11:25:39.370Z,13.40
2019-05-03T11:28:16.670Z,13.20
2019-05-03T11:30:55.688Z,13.10
2019-05-03T11:33:31.690Z,13.10
2019-05-03T11:36:05.256Z,13.10
2019-05-03T11:38:39.683Z,13.20
2019-05-03T11:41:12.579Z,13.20
2019-05-03T11:43:45.521Z,13.30
2019-05-03T11:46:18.459Z,13.50
2019-05-03T11:48:51.349Z,13.70
2019-05-03T11:51:24.889Z,13.90
2019-05-03T11:53:57.948Z,14.00
2019-05-03T11:56:31.009Z,13.90
2019-05-03T11:59:05.331Z,13.90
2019-05-03T12:01:39.811Z,13.90
2019-05-03T12:04:12.649Z,13.80
2019-05-03T12:06:45.731Z,13.80
2019-05-03T12:09:18.722Z,13.60
2019-05-03T12:11:55.342Z,13.70
2019-05-03T12:14:27.919Z,13.80
2019-05-03T12:17:18.277Z,13.70
2019-05-03T12:19:38.287Z,13.90
2019-05-03T12:22:12.379Z,14.50
2019-05-03T12:24:46.532Z,14.90
2019-05-03T12:27:19.870Z,14.80
2019-05-03T12:29:52.879Z,14.60
2019-05-03T12:32:25.908Z,14.50
2019-05-03T12:34:58.849Z,14.50
2019-05-03T12:37:31.899Z,14.70
2019-05-03T12:40:05.764Z,15.00
2019-05-03T12:42:38.709Z,15.40
2019-05-03T12:45:11.531Z,15.20
2019-05-03T12:47:45.372Z,15.40
2019-05-03T12:50:18.580Z,15.30
2019-05-03T12:52:51.452Z,15.20
2019-05-03T12:55:24.801Z,14.90
2019-05-03T12:57:58.220Z,15.20
2019-05-03T13:00:32.669Z,15.70
2019-05-03T13:03:25.212Z,15.70
2019-05-03T13:05:58.315Z,15.50
2019-05-03T13:08:31.510Z,15.30
2019-05-03T13:11:05.539Z,15.50
2019-05-03T13:13:38.711Z,15.30
2019-05-03T13:16:15.243Z,15.10
2019-05-03T13:18:47.760Z,14.90
2019-05-03T13:21:20.873Z,15.00
2019-05-03T13:23:54.802Z,15.10
2019-05-03T13:26:28.119Z,15.40
2019-05-03T13:29:01.199Z,15.70
2019-05-03T13:31:34.733Z,15.50
2019-05-03T13:34:07.724Z,15.30
2019-05-03T13:36:40.689Z,15.30
2019-05-03T13:39:14.692Z,15.20
2019-05-03T13:41:48.019Z,15.10
2019-05-03T13:44:21.248Z,14.80
2019-05-03T13:46:55.187Z,14.80
2019-05-03T13:49:28.519Z,14.80
2019-05-03T13:52:01.392Z,14.60
2019-05-03T13:54:35.010Z,14.50
2019-05-03T13:57:08.289Z,14.50
2019-05-03T13:59:41.179Z,14.40
2019-05-03T14:02:18.839Z,14.00
2019-05-03T14:04:52.379Z,13.70
2019-05-03T14:07:23.389Z,13.50
2019-05-03T14:09:56.360Z,13.30
2019-05-03T14:12:29.151Z,13.30
2019-05-03T14:15:02.362Z,13.20
2019-05-03T14:17:35.429Z,13.30
2019-05-03T14:20:19.112Z,12.70
2019-05-03T14:22:53.240Z,12.40
2019-05-03T14:25:26.237Z,12.60
2019-05-03T14:27:59.748Z,12.70
2019-05-03T14:30:34.628Z,12.70
2019-05-03T14:33:07.428Z,12.60
2019-05-03T14:35:40.481Z,12.50
2019-05-03T14:38:15.119Z,12.00
2019-05-03T14:40:47.909Z,11.90
2019-05-03T14:43:20.789Z,11.90
2019-05-03T14:45:55.027Z,11.90
2019-05-03T14:48:28.159Z,11.90
2019-05-03T14:51:01.279Z,12.10
2019-05-03T14:53:34.828Z,12.20
2019-05-03T14:56:22.050Z,12.30
2019-05-03T14:59:04.746Z,12.40
2019-05-03T15:01:42.391Z,12.50
2019-05-03T15:04:15.228Z,12.40
2019-05-03T15:06:48.229Z,12.30
2019-05-03T15:09:21.202Z,12.40
2019-05-03T15:11:54.671Z,12.40
2019-05-03T15:14:27.729Z,12.30
2019-05-03T15:17:00.579Z,12.20
2019-05-03T15:19:34.962Z,12.10
2019-05-03T15:22:08.001Z,12.00
2019-05-03T15:24:40.979Z,11.90
2019-05-03T15:27:13.969Z,11.90
2019-05-03T15:29:46.869Z,12.00
2019-05-03T15:32:19.879Z,11.80
2019-05-03T15:34:53.381Z,11.80
2019-05-03T15:37:27.559Z,11.70
2019-05-03T15:40:00.401Z,11.60
2019-05-03T15:42:34.491Z,11.60
2019-05-03T15:45:25.508Z,11.60
2019-05-03T15:48:12.109Z,11.60
2019-05-03T15:50:44.960Z,11.40
2019-05-03T15:53:17.830Z,11.40
2019-05-03T15:55:50.728Z,11.50
2019-05-03T15:58:24.856Z,11.60
2019-05-03T16:00:58.109Z,11.80
2019-05-03T16:03:31.092Z,12.00
2019-05-03T16:06:05.110Z,12.10
2019-05-03T16:08:38.440Z,12.20
2019-05-03T16:11:11.635Z,12.20
2019-05-03T16:13:44.973Z,12.20
2019-05-03T16:16:18.109Z,12.20
2019-05-03T16:18:51.459Z,12.30
2019-05-03T16:21:25.169Z,12.20
2019-05-03T16:23:58.409Z,12.20
2019-05-03T16:26:31.349Z,12.20
2019-05-03T16:29:06.159Z,12.00
2019-05-03T16:31:39.124Z,11.90
2019-05-03T16:34:12.208Z,11.90
2019-05-03T16:36:45.476Z,11.80
2019-05-03T16:39:18.762Z,11.60
2019-05-03T16:41:51.511Z,11.30
2019-05-03T16:44:24.609Z,10.90
2019-05-03T16:46:57.489Z,10.40
2019-05-03T16:49:30.589Z,10.10
2019-05-03T16:52:05.685Z,10.00
2019-05-03T16:54:39.220Z,10.40
2019-05-03T16:57:12.011Z,10.70
2019-05-03T16:59:45.150Z,10.60
2019-05-03T17:02:17.979Z,10.60
2019-05-03T17:04:55.829Z,10.70
2019-05-03T17:07:39.720Z,10.80
2019-05-03T17:10:29.458Z,10.90
2019-05-03T17:13:02.293Z,11.00
2019-05-03T17:15:35.449Z,10.50
2019-05-03T17:18:08.105Z,10.30
2019-05-03T17:20:42.731Z,10.20
2019-05-03T17:23:15.649Z,10.10
2019-05-03T17:25:48.548Z,10.00
2019-05-03T17:28:21.414Z,10.20
2019-05-03T17:30:55.222Z,10.10
2019-05-03T17:33:28.349Z,10.20
2019-05-03T17:36:01.352Z,10.20
2019-05-03T17:38:35.194Z,10.40
2019-05-03T17:41:07.813Z,10.30
2019-05-03T17:43:45.238Z,10.20
2019-05-03T17:46:18.339Z,10.20
2019-05-03T17:48:51.449Z,10.50
2019-05-03T17:51:42.539Z,10.30
2019-05-03T17:54:27.501Z,10.40
2019-05-03T17:57:04.548Z,10.30
2019-05-03T17:59:38.989Z,10.60
2019-05-03T18:02:29.820Z,10.50
2019-05-03T18:05:20.270Z,10.70
2019-05-03T18:07:54.959Z,10.80
2019-05-03T18:10:29.699Z,10.90
2019-05-03T18:13:02.588Z,10.80
2019-05-03T18:15:35.531Z,10.60
2019-05-03T18:18:08.358Z,10.70
2019-05-03T18:20:41.259Z,10.60
2019-05-03T18:23:15.390Z,10.70
2019-05-03T18:25:48.501Z,10.70
2019-05-03T18:28:21.501Z,10.70
2019-05-03T18:30:54.785Z,10.70
2019-05-03T18:33:27.969Z,10.70
2019-05-03T18:36:00.889Z,10.90
2019-05-03T18:38:35.460Z,10.90
2019-05-03T18:41:08.209Z,10.90
2019-05-03T18:43:42.567Z,10.90
2019-05-03T18:46:32.273Z,10.80
2019-05-03T18:49:06.148Z,10.80
2019-05-03T18:51:39.181Z,10.80
2019-05-03T18:54:13.081Z,10.90
2019-05-03T18:56:46.359Z,10.80
2019-05-03T18:59:19.219Z,10.80
2019-05-03T19:01:52.243Z,10.80
2019-05-03T19:04:38.997Z,10.80
2019-05-03T19:07:14.931Z,10.90
2019-05-03T19:10:06.044Z,10.70
2019-05-03T19:12:40.510Z,10.60
2019-05-03T19:15:14.524Z,10.50
2019-05-03T19:17:52.290Z,10.50
2019-05-03T19:20:25.250Z,10.50
2019-05-03T19:22:59.130Z,10.50
2019-05-03T19:25:44.029Z,10.60
2019-05-03T19:28:08.121Z,10.40
2019-05-03T19:30:44.386Z,10.60
2019-05-03T19:33:17.335Z,10.70
2019-05-03T19:35:50.532Z,10.60
2019-05-03T19:38:24.601Z,10.40
2019-05-03T19:40:58.007Z,10.50
2019-05-03T19:43:31.287Z,10.50
2019-05-03T19:46:07.186Z,10.40
2019-05-03T19:48:39.289Z,10.50
2019-05-03T19:51:12.195Z,10.60
2019-05-03T19:53:47.188Z,10.60
2019-05-03T19:56:21.311Z,10.60
2019-05-03T19:58:55.921Z,10.60
2019-05-03T20:01:34.428Z,10.60
2019-05-03T20:04:07.127Z,10.50
2019-05-03T20:06:42.780Z,10.50
2019-05-03T20:09:26.181Z,10.50
2019-05-03T20:11:59.379Z,10.60
2019-05-03T20:14:32.761Z,10.70
2019-05-03T20:17:06.839Z,10.70
2019-05-03T20:19:40.089Z,10.70
2019-05-03T20:22:15.085Z,10.70
2019-05-03T20:24:47.639Z,10.70
2019-05-03T20:27:21.059Z,10.50
2019-05-03T20:29:55.462Z,10.60
2019-05-03T20:32:28.700Z,10.70
2019-05-03T20:35:12.990Z,10.60
2019-05-03T20:37:36.339Z,10.60
2019-05-03T20:40:09.132Z,10.60
2019-05-03T20:42:54.415Z,10.60
2019-05-03T20:45:33.139Z,10.50
2019-05-03T20:48:10.449Z,10.40
2019-05-03T20:50:44.726Z,10.50
2019-05-03T20:53:18.090Z,10.60
2019-05-03T20:55:51.089Z,10.60
2019-05-03T20:58:25.164Z,10.40
2019-05-03T21:00:58.339Z,10.50
2019-05-03T21:03:31.455Z,10.50
2019-05-03T21:06:05.419Z,10.50
2019-05-03T21:08:49.781Z,10.40
2019-05-03T21:11:14.683Z,10.40
2019-05-03T21:13:47.500Z,10.30
2019-05-03T21:16:21.849Z,10.30
2019-05-03T21:18:59.249Z,10.20
2019-05-03T21:21:36.969Z,10.30
2019-05-03T21:24:14.428Z,10.30
2019-05-03T21:26:47.317Z,10.30
2019-05-03T21:29:20.389Z,10.30
2019-05-03T21:31:55.124Z,10.20
2019-05-03T21:34:27.839Z,10.20
2019-05-03T21:37:00.950Z,10.10
2019-05-03T21:39:34.857Z,10.10
2019-05-03T21:42:07.841Z,10.00
2019-05-03T21:44:40.711Z,10.00
2019-05-03T21:47:17.982Z,10.00
2019-05-03T21:49:52.479Z,10.00
2019-05-03T21:52:25.379Z,10.00
2019-05-03T21:54:58.390Z,9.90
2019-05-03T21:57:31.250Z,9.90
2019-05-03T22:00:05.594Z,10.00
2019-05-03T22:02:38.438Z,10.10
2019-05-03T22:05:11.509Z,10.10
2019-05-03T22:07:44.501Z,10.10
2019-05-03T22:10:17.640Z,10.10
2019-05-03T22:12:50.801Z,10.00
2019-05-03T22:15:29.329Z,10.10
2019-05-03T22:18:04.710Z,10.20
2019-05-03T22:20:39.761Z,10.20
2019-05-03T22:23:20.508Z,10.20
2019-05-03T22:25:54.318Z,10.20
2019-05-03T22:28:27.877Z,10.10
2019-05-03T22:31:00.929Z,10.10
2019-05-03T22:33:33.780Z,10.00
2019-05-03T22:36:08.857Z,9.90
2019-05-03T22:38:41.397Z,9.90
2019-05-03T22:41:14.845Z,9.90
2019-05-03T22:43:48.079Z,9.90
2019-05-03T22:46:20.960Z,9.90
2019-05-03T22:48:55.205Z,9.90
2019-05-03T22:51:28.369Z,9.90
2019-05-03T22:54:01.256Z,9.90
2019-05-03T22:56:35.611Z,9.80
2019-05-03T22:59:08.636Z,9.80
2019-05-03T23:01:41.891Z,9.90
2019-05-03T23:04:15.081Z,9.80
2019-05-03T23:06:48.184Z,9.80
2019-05-03T23:09:21.317Z,9.90
2019-05-03T23:11:55.229Z,9.90
2019-05-03T23:14:28.679Z,9.80
2019-05-03T23:17:01.740Z,9.70
2019-05-03T23:19:36.593Z,9.70
2019-05-03T23:22:10.379Z,9.70
2019-05-03T23:24:43.819Z,9.80
2019-05-03T23:27:16.915Z,9.70
2019-05-03T23:29:49.929Z,9.70
2019-05-03T23:32:24.524Z,9.30
2019-05-03T23:34:57.692Z,9.40
2019-05-03T23:37:30.590Z,9.40
2019-05-03T23:40:04.493Z,9.40
2019-05-03T23:42:37.629Z,9.30
2019-05-03T23:45:10.430Z,9.40
2019-05-03T23:47:47.950Z,9.40
2019-05-03T23:50:22.119Z,9.30
2019-05-03T23:52:55.179Z,9.40
2019-05-03T23:55:34.454Z,9.40
2019-05-03T23:58:06.997Z,9.10
